createdAt,value
2019-01-15T00:01:52.811Z,2.93
2019-01-15T00:04:21.234Z,2.90
2019-01-15T00:06:49.661Z,3.70
2019-01-15T00:09:18.078Z,2.77
2019-01-15T00:11:46.505Z,3.07
2019-01-15T00:14:15.017Z,3.33
2019-01-15T00:16:43.529Z,2.90
2019-01-15T00:19:11.997Z,2.50
2019-01-15T00:21:40.428Z,1.90
2019-01-15T00:24:08.838Z,3.03
2019-01-15T00:26:37.266Z,2.60
2019-01-15T00:29:05.685Z,2.27
2019-01-15T00:31:34.097Z,2.30
2019-01-15T00:34:02.519Z,2.53
2019-01-15T00:36:30.955Z,2.70
2019-01-15T00:38:59.394Z,3.10
2019-01-15T00:41:27.801Z,2.27
2019-01-15T00:43:56.238Z,2.67
2019-01-15T00:46:24.690Z,3.50
2019-01-15T00:48:53.185Z,2.53
2019-01-15T00:51:21.600Z,2.90
2019-01-15T00:53:50.279Z,2.67
2019-01-15T00:56:18.702Z,3.40
2019-01-15T00:58:47.439Z,2.83
2019-01-15T01:01:15.842Z,2.50
2019-01-15T01:03:44.256Z,2.07
2019-01-15T01:06:12.687Z,2.87
2019-01-15T01:08:41.159Z,3.73
2019-01-15T01:11:09.613Z,2.40
2019-01-15T01:13:38.026Z,2.93
2019-01-15T01:16:06.573Z,2.93
2019-01-15T01:18:34.995Z,3.33
2019-01-15T01:21:03.428Z,3.43
2019-01-15T01:23:32.083Z,3.00
2019-01-15T01:26:00.580Z,3.03
2019-01-15T01:28:29.008Z,3.63
2019-01-15T01:30:57.430Z,2.60
2019-01-15T01:33:25.957Z,3.13
2019-01-15T01:35:54.373Z,3.07
2019-01-15T01:38:22.797Z,3.07
2019-01-15T01:40:51.212Z,3.27
2019-01-15T01:43:19.637Z,2.93
2019-01-15T01:45:48.043Z,2.20
2019-01-15T01:48:16.601Z,2.90
2019-01-15T01:50:45.017Z,3.73
2019-01-15T01:53:13.413Z,3.53
2019-01-15T01:55:41.908Z,3.30
2019-01-15T01:58:10.321Z,2.47
2019-01-15T02:00:38.745Z,2.33
2019-01-15T02:03:07.159Z,2.40
2019-01-15T02:05:35.671Z,2.90
2019-01-15T02:08:04.247Z,2.57
2019-01-15T02:10:32.837Z,2.47
2019-01-15T02:13:01.289Z,2.80
2019-01-15T02:15:29.684Z,2.63
2019-01-15T02:17:58.140Z,2.43
2019-01-15T02:20:26.576Z,3.23
2019-01-15T02:22:54.985Z,2.13
2019-01-15T02:25:23.391Z,4.30
2019-01-15T02:27:52.889Z,2.73
2019-01-15T02:30:23.166Z,2.33
2019-01-15T02:32:51.659Z,2.73
2019-01-15T02:35:20.157Z,2.60
2019-01-15T02:37:48.656Z,2.50
2019-01-15T02:40:17.193Z,3.57
2019-01-15T02:42:46.657Z,3.10
2019-01-15T02:45:18.392Z,2.07
2019-01-15T02:47:47.140Z,3.07
2019-01-15T02:50:17.869Z,2.13
2019-01-15T02:52:46.313Z,3.00
2019-01-15T02:55:14.903Z,2.17
2019-01-15T02:57:43.326Z,3.13
2019-01-15T03:00:21.165Z,2.87
2019-01-15T03:02:49.598Z,2.40
2019-01-15T03:05:18.158Z,2.47
2019-01-15T03:07:46.572Z,2.57
2019-01-15T03:10:17.597Z,3.57
2019-01-15T03:12:54.819Z,2.60
2019-01-15T03:15:17.805Z,2.73
2019-01-15T03:17:46.364Z,3.00
2019-01-15T03:20:16.400Z,3.13
2019-01-15T03:22:44.915Z,2.60
2019-01-15T03:25:13.778Z,3.80
2019-01-15T03:27:42.196Z,3.50
2019-01-15T03:30:16.268Z,3.60
2019-01-15T03:32:44.757Z,4.40
2019-01-15T03:35:13.360Z,2.67
2019-01-15T03:37:41.884Z,3.03
2019-01-15T03:40:13.453Z,3.37
2019-01-15T03:42:41.858Z,3.70
2019-01-15T03:45:10.377Z,3.70
2019-01-15T03:47:38.858Z,4.40
2019-01-15T03:50:08.916Z,3.40
2019-01-15T03:52:37.347Z,3.97
2019-01-15T03:55:08.824Z,3.53
2019-01-15T03:57:37.229Z,4.20
2019-01-15T04:02:45.789Z,4.43
2019-01-15T04:05:15.444Z,4.27
2019-01-15T04:07:44.538Z,3.90
2019-01-15T04:10:13.115Z,4.53
2019-01-15T04:12:41.519Z,3.93
2019-01-15T04:15:13.891Z,4.20
2019-01-15T04:17:42.659Z,5.33
2019-01-15T04:20:13.544Z,4.60
2019-01-15T04:22:41.989Z,5.27
2019-01-15T04:25:11.306Z,4.10
2019-01-15T04:27:39.751Z,5.23
2019-01-15T04:30:16.512Z,5.00
2019-01-15T04:32:44.944Z,5.67
2019-01-15T04:35:13.769Z,5.10
2019-01-15T04:37:42.253Z,4.97
2019-01-15T04:40:13.405Z,3.87
2019-01-15T04:42:41.860Z,5.33
2019-01-15T04:45:12.909Z,5.20
2019-01-15T04:47:41.375Z,5.97
2019-01-15T04:50:10.434Z,5.90
2019-01-15T04:52:40.227Z,5.43
2019-01-15T04:55:12.192Z,5.33
2019-01-15T04:57:40.624Z,5.50
2019-01-15T05:00:14.597Z,5.23
2019-01-15T05:02:43.199Z,4.80
2019-01-15T05:05:11.871Z,5.00
2019-01-15T05:07:40.307Z,4.30
2019-01-15T05:10:11.457Z,4.70
2019-01-15T05:12:39.928Z,4.07
2019-01-15T05:15:13.012Z,5.20
2019-01-15T05:17:41.282Z,4.60
2019-01-15T05:20:17.973Z,5.10
2019-01-15T05:22:46.695Z,4.83
2019-01-15T05:25:17.261Z,4.80
2019-01-15T05:27:45.743Z,4.50
2019-01-15T05:30:19.757Z,3.97
2019-01-15T05:32:48.183Z,4.43
2019-01-15T05:35:16.593Z,5.57
2019-01-15T05:37:45.081Z,5.03
2019-01-15T05:40:14.950Z,5.53
2019-01-15T05:42:43.463Z,6.60
2019-01-15T05:45:21.682Z,6.30
2019-01-15T05:47:51.159Z,6.33
2019-01-15T05:50:36.282Z,5.70
2019-01-15T05:53:04.761Z,6.40
2019-01-15T05:55:33.197Z,6.93
2019-01-15T05:58:01.623Z,6.63
2019-01-15T06:00:30.050Z,5.93
2019-01-15T06:02:58.472Z,6.90
2019-01-15T06:05:26.895Z,7.50
2019-01-15T06:07:55.317Z,6.90
2019-01-15T06:10:23.745Z,7.30
2019-01-15T06:12:52.154Z,7.10
2019-01-15T06:15:20.634Z,5.77
2019-01-15T06:17:49.069Z,5.57
2019-01-15T06:20:21.282Z,6.90
2019-01-15T06:22:49.733Z,6.30
2019-01-15T06:25:18.263Z,6.13
2019-01-15T06:27:46.770Z,6.60
2019-01-15T06:30:22.100Z,5.23
2019-01-15T06:32:50.516Z,6.40
2019-01-15T06:35:19.007Z,6.20
2019-01-15T06:37:47.557Z,5.20
2019-01-15T06:40:17.621Z,5.90
2019-01-15T06:42:46.038Z,6.60
2019-01-15T06:45:20.130Z,5.83
2019-01-15T06:47:48.541Z,5.00
2019-01-15T06:50:17.038Z,6.03
2019-01-15T06:52:45.514Z,6.10
2019-01-15T06:55:16.392Z,5.93
2019-01-15T06:57:46.440Z,6.03
2019-01-15T07:00:19.546Z,6.87
2019-01-15T07:02:48.024Z,5.77
2019-01-15T07:05:16.458Z,4.57
2019-01-15T07:07:44.865Z,6.70
2019-01-15T07:10:21.986Z,6.60
2019-01-15T07:12:50.398Z,6.13
2019-01-15T07:15:18.838Z,7.07
2019-01-15T07:17:47.249Z,6.07
2019-01-15T07:20:16.647Z,6.70
2019-01-15T07:22:45.150Z,5.77
2019-01-15T07:25:18.773Z,6.17
2019-01-15T07:27:47.206Z,4.90
2019-01-15T07:30:24.309Z,5.70
2019-01-15T07:32:52.748Z,6.73
2019-01-15T07:35:21.165Z,6.10
2019-01-15T07:37:49.672Z,5.80
2019-01-15T07:40:18.077Z,5.97
2019-01-15T07:42:46.509Z,6.40
2019-01-15T07:45:15.026Z,7.10
2019-01-15T07:47:43.435Z,7.20
2019-01-15T07:50:14.557Z,7.90
2019-01-15T07:52:43.245Z,7.00
2019-01-15T07:55:14.393Z,7.40
2019-01-15T07:57:42.815Z,7.50
2019-01-15T08:00:14.534Z,7.00
2019-01-15T08:02:42.966Z,5.70
2019-01-15T08:05:13.924Z,8.67
2019-01-15T08:07:42.329Z,7.83
2019-01-15T08:10:13.499Z,7.43
2019-01-15T08:12:41.915Z,7.43
2019-01-15T08:15:13.271Z,8.40
2019-01-15T08:17:41.679Z,7.37
2019-01-15T08:20:12.537Z,7.77
2019-01-15T08:22:41.190Z,9.10
2019-01-15T08:25:12.201Z,6.60
2019-01-15T08:27:40.629Z,8.07
2019-01-15T08:30:21.168Z,8.07
2019-01-15T08:32:49.665Z,8.50
2019-01-15T08:35:18.166Z,7.57
2019-01-15T08:37:46.578Z,8.70
2019-01-15T08:40:18.472Z,7.50
2019-01-15T08:42:46.970Z,6.80
2019-01-15T08:45:16.977Z,7.27
2019-01-15T08:47:50.282Z,7.70
2019-01-15T08:50:21.844Z,8.47
2019-01-15T08:52:50.261Z,5.93
2019-01-15T08:55:18.678Z,6.10
2019-01-15T08:57:47.162Z,6.00
2019-01-15T09:00:15.738Z,6.97
2019-01-15T09:02:44.214Z,7.37
2019-01-15T09:05:12.762Z,6.47
2019-01-15T09:07:41.254Z,6.70
2019-01-15T09:10:12.485Z,6.50
2019-01-15T09:12:40.888Z,6.60
2019-01-15T09:15:12.063Z,6.73
2019-01-15T09:17:40.468Z,8.23
2019-01-15T09:20:11.995Z,6.33
2019-01-15T09:22:40.501Z,6.87
2019-01-15T09:25:08.981Z,6.03
2019-01-15T09:27:37.412Z,8.00
2019-01-15T09:30:11.541Z,6.70
2019-01-15T09:32:39.978Z,7.20
2019-01-15T09:35:08.659Z,8.13
2019-01-15T09:37:37.135Z,7.27
2019-01-15T09:40:08.630Z,7.10
2019-01-15T09:42:37.046Z,6.70
2019-01-15T09:45:14.105Z,6.60
2019-01-15T09:47:44.149Z,6.93
2019-01-15T09:50:13.210Z,5.80
2019-01-15T09:52:41.695Z,6.50
2019-01-15T09:55:10.297Z,6.87
2019-01-15T09:57:38.783Z,7.80
2019-01-15T10:00:13.425Z,6.33
2019-01-15T10:02:41.855Z,7.03
2019-01-15T10:05:10.334Z,6.87
2019-01-15T10:07:38.756Z,6.20
2019-01-15T10:10:15.234Z,6.80
2019-01-15T10:12:43.645Z,6.77
2019-01-15T10:15:14.969Z,6.23
2019-01-15T10:17:43.395Z,6.50
2019-01-15T10:20:13.650Z,5.80
2019-01-15T10:22:42.075Z,6.47
2019-01-15T10:25:12.142Z,6.43
2019-01-15T10:27:40.940Z,7.10
2019-01-15T10:30:12.798Z,6.83
2019-01-15T10:32:44.303Z,8.23
2019-01-15T10:35:18.462Z,7.37
2019-01-15T10:37:46.898Z,6.70
2019-01-15T10:40:15.318Z,7.83
2019-01-15T10:42:43.750Z,8.23
2019-01-15T10:45:12.297Z,7.43
2019-01-15T10:47:40.713Z,8.20
2019-01-15T10:50:12.069Z,8.13
2019-01-15T10:52:40.482Z,7.73
2019-01-15T10:55:09.439Z,9.10
2019-01-15T10:57:37.851Z,8.50
2019-01-15T11:00:09.363Z,8.97
2019-01-15T11:02:37.771Z,7.90
2019-01-15T11:05:08.758Z,8.40
2019-01-15T11:07:37.170Z,8.00
2019-01-15T11:10:08.653Z,8.33
2019-01-15T11:12:37.065Z,8.00
2019-01-15T11:15:08.189Z,8.87
2019-01-15T11:17:36.635Z,9.30
2019-01-15T11:20:10.773Z,9.13
2019-01-15T11:22:39.205Z,8.97
2019-01-15T11:25:08.255Z,8.20
2019-01-15T11:27:36.692Z,8.70
2019-01-15T11:30:08.509Z,8.53
2019-01-15T11:32:36.929Z,7.50
2019-01-15T11:35:08.592Z,8.40
2019-01-15T11:37:37.002Z,8.50
2019-01-15T11:40:08.329Z,8.90
2019-01-15T11:42:36.743Z,8.43
2019-01-15T11:45:13.830Z,8.30
2019-01-15T11:47:42.245Z,8.00
2019-01-15T11:50:13.879Z,7.80
2019-01-15T11:52:42.294Z,7.70
2019-01-15T11:55:10.713Z,7.37
2019-01-15T11:57:39.124Z,7.30
2019-01-15T12:00:13.547Z,7.20
2019-01-15T12:02:42.328Z,7.77
2019-01-15T12:05:28.580Z,8.07
2019-01-15T12:08:10.576Z,6.00
2019-01-15T12:10:56.684Z,6.87
2019-01-15T12:13:26.910Z,8.60
2019-01-15T12:15:57.109Z,7.40
2019-01-15T12:18:41.937Z,8.20
2019-01-15T12:21:14.876Z,7.03
2019-01-15T12:23:50.490Z,7.33
2019-01-15T12:26:20.546Z,7.97
2019-01-15T12:28:56.542Z,8.40
2019-01-15T12:31:26.661Z,7.53
2019-01-15T12:33:56.726Z,8.27
2019-01-15T12:36:32.918Z,7.90
2019-01-15T12:39:05.621Z,7.77
2019-01-15T12:41:41.310Z,8.23
2019-01-15T12:44:11.371Z,8.43
2019-01-15T12:46:41.427Z,9.17
2019-01-15T12:49:11.481Z,8.70
2019-01-15T12:51:44.457Z,10.10
2019-01-15T12:54:14.526Z,9.70
2019-01-15T12:57:00.554Z,8.07
2019-01-15T12:59:33.527Z,9.90
2019-01-15T13:02:19.861Z,9.00
2019-01-15T13:04:59.038Z,8.67
2019-01-15T13:07:37.807Z,10.53
2019-01-15T13:10:27.432Z,9.30
2019-01-15T13:12:57.477Z,7.87
2019-01-15T13:15:34.738Z,8.03
2019-01-15T13:18:21.081Z,8.90
2019-01-15T13:21:03.137Z,7.93
2019-01-15T13:23:35.876Z,8.07
2019-01-15T13:26:06.066Z,7.53
2019-01-15T13:28:39.187Z,7.20
2019-01-15T13:31:11.956Z,8.20
2019-01-15T13:33:42.005Z,7.70
2019-01-15T13:36:14.977Z,6.73
2019-01-15T13:38:45.021Z,7.80
2019-01-15T13:41:27.189Z,8.33
2019-01-15T13:44:06.280Z,6.20
2019-01-15T13:46:36.394Z,8.40
2019-01-15T13:49:22.910Z,6.63
2019-01-15T13:51:55.904Z,7.33
2019-01-15T13:54:34.935Z,7.00
2019-01-15T13:57:05.016Z,7.20
2019-01-15T13:59:46.788Z,6.70
2019-01-15T14:02:31.618Z,5.60
2019-01-15T14:05:17.745Z,6.23
2019-01-15T14:07:47.817Z,7.50
2019-01-15T14:10:20.662Z,7.03
2019-01-15T14:12:53.850Z,6.67
2019-01-15T14:15:23.910Z,6.50
2019-01-15T14:17:53.978Z,6.60
2019-01-15T14:20:24.019Z,5.70
2019-01-15T14:23:10.307Z,7.63
2019-01-15T14:25:56.661Z,6.90
2019-01-15T14:28:26.724Z,6.27
2019-01-15T14:31:08.849Z,7.10
2019-01-15T14:33:44.781Z,6.47
2019-01-15T14:36:31.293Z,6.60
2019-01-15T14:39:16.224Z,5.50
2019-01-15T14:41:49.026Z,4.60
2019-01-15T14:44:19.079Z,4.93
2019-01-15T14:46:57.426Z,4.00
2019-01-15T14:49:27.490Z,4.47
2019-01-15T14:52:06.262Z,4.60
2019-01-15T14:54:44.992Z,3.87
2019-01-15T14:57:17.861Z,4.60
2019-01-15T14:59:59.947Z,5.40
2019-01-15T15:02:35.681Z,5.03
2019-01-15T15:05:07.670Z,4.03
2019-01-15T15:07:55.549Z,5.30
2019-01-15T15:10:34.341Z,4.93
2019-01-15T15:13:04.396Z,5.40
2019-01-15T15:15:43.580Z,4.97
2019-01-15T15:18:30.039Z,5.13
2019-01-15T15:21:03.045Z,5.60
2019-01-15T15:23:44.655Z,7.27
2019-01-15T15:26:32.836Z,3.90
2019-01-15T15:29:08.567Z,4.60
2019-01-15T15:31:53.460Z,4.50
2019-01-15T15:34:28.991Z,4.07
2019-01-15T15:37:15.062Z,4.57
2019-01-15T15:40:01.477Z,4.60
2019-01-15T15:42:37.482Z,3.33
2019-01-15T15:45:09.793Z,5.10
2019-01-15T15:47:39.837Z,4.70
2019-01-15T15:50:17.845Z,4.60
2019-01-15T15:53:05.767Z,4.20
2019-01-15T15:55:54.342Z,5.83
2019-01-15T15:58:36.415Z,5.63
2019-01-15T16:01:15.101Z,4.27
2019-01-15T16:04:01.502Z,4.77
2019-01-15T16:06:40.573Z,4.97
2019-01-15T16:09:16.370Z,4.00
2019-01-15T16:11:52.108Z,4.37
2019-01-15T16:14:34.209Z,4.30
2019-01-15T16:17:20.398Z,4.40
2019-01-15T16:20:02.520Z,4.50
2019-01-15T16:22:44.658Z,4.97
2019-01-15T16:25:20.751Z,3.90
2019-01-15T16:28:06.794Z,5.17
2019-01-15T16:30:53.201Z,4.93
2019-01-15T16:33:26.215Z,5.67
2019-01-15T16:35:59.193Z,5.03
2019-01-15T16:38:44.269Z,4.93
2019-01-15T16:41:23.180Z,5.50
2019-01-15T16:43:59.380Z,5.20
2019-01-15T16:46:47.753Z,5.87
2019-01-15T16:49:20.738Z,5.57
2019-01-15T16:51:53.442Z,4.50
2019-01-15T16:54:23.499Z,4.40
2019-01-15T16:56:56.595Z,4.33
2019-01-15T16:59:26.646Z,4.40
2019-01-15T17:01:56.691Z,4.83
2019-01-15T17:04:26.737Z,5.37
2019-01-15T17:07:12.766Z,5.77
2019-01-15T17:09:48.798Z,5.90
2019-01-15T17:12:34.866Z,5.90
2019-01-15T17:15:22.198Z,5.80
2019-01-15T17:17:57.934Z,6.00
2019-01-15T17:20:27.981Z,7.03
2019-01-15T17:22:58.031Z,6.30
2019-01-15T17:25:28.074Z,5.53
2019-01-15T17:28:03.846Z,6.63
2019-01-15T17:30:36.550Z,7.10
2019-01-15T17:33:15.433Z,6.93
2019-01-15T17:35:45.477Z,6.27
2019-01-15T17:38:30.374Z,6.70
2019-01-15T17:41:15.066Z,6.87
2019-01-15T17:43:47.851Z,7.80
2019-01-15T17:46:17.905Z,7.73
2019-01-15T17:49:04.194Z,7.30
2019-01-15T17:51:34.242Z,9.00
2019-01-15T17:54:10.229Z,7.20
2019-01-15T17:56:49.248Z,8.57
2019-01-15T17:59:19.326Z,9.07
2019-01-15T18:01:58.090Z,9.53
2019-01-15T18:04:44.190Z,10.50
2019-01-15T18:07:23.247Z,9.20
2019-01-15T18:09:53.316Z,11.00
2019-01-15T18:12:35.259Z,10.77
2019-01-15T18:15:18.450Z,12.60
2019-01-15T18:17:51.446Z,10.50
2019-01-15T18:20:24.258Z,8.73
2019-01-15T18:23:03.250Z,10.50
2019-01-15T18:25:36.267Z,10.40
2019-01-15T18:28:12.495Z,11.30
2019-01-15T18:30:42.578Z,11.60
2019-01-15T18:33:27.692Z,10.47
2019-01-15T18:36:00.179Z,11.17
2019-01-15T18:38:35.949Z,11.03
2019-01-15T18:41:06.030Z,12.60
2019-01-15T18:43:38.788Z,13.03
2019-01-15T18:46:11.587Z,12.90
2019-01-15T18:48:47.537Z,13.20
2019-01-15T18:51:20.255Z,12.13
2019-01-15T18:53:52.974Z,13.73
2019-01-15T18:56:31.938Z,11.83
2019-01-15T18:59:19.920Z,14.10
2019-01-15T19:01:52.673Z,12.43
2019-01-15T19:04:25.386Z,14.10
2019-01-15T19:06:58.138Z,11.40
2019-01-15T19:09:40.192Z,10.20
2019-01-15T19:12:12.952Z,12.00
2019-01-15T19:14:45.951Z,11.27
2019-01-15T19:17:16.059Z,12.90
2019-01-15T19:19:46.092Z,12.30
2019-01-15T19:22:18.663Z,13.70
2019-01-15T19:25:06.740Z,14.47
2019-01-15T19:27:36.798Z,12.97
2019-01-15T19:30:24.663Z,14.67
2019-01-15T19:32:54.713Z,16.73
2019-01-15T19:35:33.594Z,17.77
2019-01-15T19:38:15.495Z,18.73
2019-01-15T19:41:01.549Z,16.13
2019-01-15T19:43:31.611Z,13.90
2019-01-15T19:46:04.407Z,12.30
2019-01-15T19:48:46.169Z,10.80
2019-01-15T19:51:16.245Z,11.47
2019-01-15T19:53:52.249Z,14.50
2019-01-15T19:56:34.140Z,11.37
2019-01-15T19:59:06.935Z,12.57
2019-01-15T20:01:49.013Z,13.17
2019-01-15T20:04:21.965Z,13.10
2019-01-15T20:07:08.525Z,14.77
2019-01-15T20:09:44.273Z,14.00
2019-01-15T20:12:30.622Z,12.87
2019-01-15T20:15:09.229Z,11.40
2019-01-15T20:17:39.292Z,15.77
2019-01-15T20:20:13.803Z,18.43
2019-01-15T20:22:49.589Z,15.43
2019-01-15T20:25:37.506Z,13.63
2019-01-15T20:28:25.445Z,11.83
2019-01-15T20:31:04.058Z,10.90
2019-01-15T20:33:34.132Z,11.10
2019-01-15T20:36:04.210Z,10.13
2019-01-15T20:38:34.352Z,9.63
2019-01-15T20:41:04.383Z,9.50
2019-01-15T20:43:43.509Z,9.40
2019-01-15T20:46:22.642Z,9.30
2019-01-15T20:49:07.562Z,9.90
2019-01-15T20:51:40.292Z,10.70
2019-01-15T20:54:10.327Z,10.10
2019-01-15T20:56:56.701Z,10.90
2019-01-15T20:59:26.799Z,11.73
2019-01-15T21:01:56.857Z,9.63
2019-01-15T21:04:35.657Z,8.67
2019-01-15T21:07:11.462Z,8.10
2019-01-15T21:09:56.351Z,13.80
2019-01-15T21:12:38.085Z,12.10
2019-01-15T21:15:25.720Z,6.60
2019-01-15T21:18:12.082Z,6.03
2019-01-15T21:20:54.175Z,6.97
2019-01-15T21:23:40.269Z,6.83
2019-01-15T21:26:16.399Z,5.50
2019-01-15T21:29:04.094Z,6.00
2019-01-15T21:31:50.190Z,6.27
2019-01-15T21:34:23.144Z,7.40
2019-01-15T21:37:02.169Z,6.07
2019-01-15T21:39:48.574Z,6.30
2019-01-15T21:42:34.826Z,15.00
2019-01-15T21:45:10.844Z,9.37
2019-01-15T21:47:43.550Z,12.37
2019-01-15T21:50:13.601Z,7.80
2019-01-15T21:53:00.035Z,8.87
2019-01-15T21:55:39.154Z,13.87
2019-01-15T21:58:21.308Z,6.20
2019-01-15T22:00:54.278Z,7.67
2019-01-15T22:03:27.405Z,6.20
2019-01-15T22:05:59.894Z,5.87
2019-01-15T22:08:38.702Z,8.33
2019-01-15T22:11:17.485Z,6.87
2019-01-15T22:13:59.458Z,8.13
2019-01-15T22:16:29.506Z,8.67
2019-01-15T22:18:59.564Z,14.20
2019-01-15T22:21:38.310Z,8.60
2019-01-15T22:24:20.234Z,10.57
2019-01-15T22:26:59.331Z,10.67
2019-01-15T22:29:35.101Z,15.07
2019-01-15T22:32:08.073Z,14.77
2019-01-15T22:34:52.961Z,14.30
2019-01-15T22:37:38.086Z,13.40
2019-01-15T22:40:26.322Z,13.93
2019-01-15T22:43:08.499Z,10.90
2019-01-15T22:45:54.630Z,11.07
2019-01-15T22:48:40.994Z,12.13
2019-01-15T22:51:19.919Z,12.50
2019-01-15T22:53:58.845Z,12.60
2019-01-15T22:56:40.786Z,13.10
2019-01-15T22:59:16.825Z,13.30
2019-01-15T23:01:52.854Z,13.23
2019-01-15T23:04:22.917Z,13.23
2019-01-15T23:06:52.981Z,16.17
2019-01-15T23:09:28.686Z,16.87
2019-01-15T23:12:01.524Z,14.37
2019-01-15T23:14:34.521Z,16.80
2019-01-15T23:17:13.728Z,19.57
2019-01-15T23:20:00.184Z,18.00
2019-01-15T23:22:45.353Z,17.57
2019-01-15T23:25:33.290Z,13.47
2019-01-15T23:28:19.686Z,12.80
2019-01-15T23:30:55.732Z,13.10
2019-01-15T23:33:28.748Z,10.83
2019-01-15T23:36:13.894Z,14.03
2019-01-15T23:38:44.044Z,12.43
2019-01-15T23:41:16.807Z,11.30
2019-01-15T23:43:52.821Z,13.87
2019-01-15T23:46:39.093Z,10.37
2019-01-15T23:49:21.114Z,11.77
2019-01-15T23:51:51.415Z,11.37
2019-01-15T23:54:27.495Z,8.77
2019-01-15T23:57:00.314Z,10.30
2019-01-15T23:59:39.526Z,11.37
